Time;durP1;ratioP1;P1;durP2;ratioP2;P2;SDS_P1;SDS_P2;PMS_P1;PMS_P2;Temp;Humidity;BMP_temperature;BMP_pressure;BME280_temperature;BME280_humidity;BME280_pressure;Samples;Min_cycle;Max_cycle;Signal;HPM_P1;HPM_P2
2023/08/21 00:01:33;;;;;;;15.20;13.70;;;;;;;21.43;82.06;100866.08;104050;276;39994;-73
2023/08/21 00:04:07;;;;;;;16.70;14.40;;;;;;;21.39;81.89;100860.48;104050;275;38232;-73
2023/08/21 00:06:43;;;;;;;15.50;13.90;;;;;;;21.35;81.99;100864.73;103843;276;40513;-75
2023/08/21 00:09:20;;;;;;;15.80;14.20;;;;;;;21.34;82.09;100866.60;104040;276;38265;-75
2023/08/21 00:11:56;;;;;;;15.90;14.30;;;;;;;21.31;82.08;100868.02;104105;276;38725;-74
2023/08/21 00:14:30;;;;;;;16.70;15.00;;;;;;;21.27;81.79;100867.66;104105;276;38369;-72
2023/08/21 00:17:04;;;;;;;15.70;14.40;;;;;;;21.21;81.93;100866.50;104169;276;38233;-74
2023/08/21 00:19:38;;;;;;;15.90;14.20;;;;;;;21.15;82.01;100865.10;104119;275;38373;-74
2023/08/21 00:22:12;;;;;;;15.70;14.30;;;;;;;21.09;82.12;100868.05;104226;275;38364;-73
2023/08/21 00:24:47;;;;;;;16.50;14.80;;;;;;;21.09;82.41;100870.19;104053;276;38256;-72
2023/08/21 00:27:23;;;;;;;15.70;14.40;;;;;;;21.10;82.35;100871.70;104181;276;38673;-74
2023/08/21 00:29:58;;;;;;;17.00;15.40;;;;;;;21.08;82.37;100873.59;104116;275;39441;-73
2023/08/21 00:32:32;;;;;;;18.10;16.20;;;;;;;21.09;82.65;100873.41;104053;276;41262;-75
2023/08/21 00:35:09;;;;;;;17.90;16.30;;;;;;;21.07;82.76;100875.86;104098;276;38279;-74
2023/08/21 00:37:43;;;;;;;17.70;15.90;;;;;;;21.01;82.87;100870.63;104165;275;38413;-73
2023/08/21 00:40:17;;;;;;;17.20;15.60;;;;;;;20.95;82.88;100871.20;104138;275;38533;-73
2023/08/21 00:42:51;;;;;;;17.70;16.00;;;;;;;20.94;83.16;100872.38;104136;276;40150;-73
2023/08/21 00:45:25;;;;;;;17.20;15.60;;;;;;;20.93;83.08;100870.86;104142;275;40256;-73
2023/08/21 00:47:59;;;;;;;16.60;15.00;;;;;;;20.92;83.38;100874.29;104129;275;39432;-74
2023/08/21 00:50:33;;;;;;;16.90;15.40;;;;;;;20.92;83.50;100877.68;104116;275;39454;-72
2023/08/21 00:53:07;;;;;;;16.40;14.90;;;;;;;20.92;83.66;100881.19;104148;275;38762;-70
2023/08/21 00:55:41;;;;;;;16.60;15.00;;;;;;;20.93;83.66;100883.42;104159;276;38646;-70
2023/08/21 00:58:15;;;;;;;17.40;15.70;;;;;;;20.93;83.65;100883.11;104031;275;174430;-72
2023/08/21 01:00:50;;;;;;;15.80;14.20;;;;;;;20.92;83.62;100884.05;103990;275;188500;-72
2023/08/21 01:03:24;;;;;;;16.30;14.60;;;;;;;20.84;83.28;100877.20;104156;275;38552;-74
2023/08/21 01:05:58;;;;;;;15.40;14.00;;;;;;;20.80;83.75;100872.33;104161;275;38389;-74
2023/08/21 01:08:40;;;;;;;16.10;14.40;;;;;;;20.81;83.98;100872.80;104025;277;39465;-69
2023/08/21 01:11:19;;;;;;;16.00;14.40;;;;;;;20.81;84.10;100871.53;104146;276;38252;-72
2023/08/21 01:14:00;;;;;;;17.20;14.50;;;;;;;20.79;84.03;100876.97;104121;275;39454;-72
2023/08/21 01:16:34;;;;;;;15.30;14.00;;;;;;;20.80;84.25;100876.27;104133;275;38745;-70
2023/08/21 01:19:10;;;;;;;16.30;14.50;;;;;;;20.79;84.19;100880.35;104121;275;39621;-72
2023/08/21 01:21:44;;;;;;;16.30;14.90;;;;;;;20.76;84.34;100880.58;104167;275;38803;-72
2023/08/21 01:24:18;;;;;;;16.70;14.70;;;;;;;20.74;84.50;100882.66;104131;275;39426;-73
2023/08/21 01:26:52;;;;;;;16.10;14.40;;;;;;;20.70;84.35;100887.78;104199;276;39454;-70
2023/08/21 01:29:26;;;;;;;16.70;15.00;;;;;;;20.68;84.54;100885.98;104117;275;38240;-71
2023/08/21 01:32:06;;;;;;;16.30;14.70;;;;;;;20.65;84.58;100885.48;104182;275;39428;-72
2023/08/21 01:34:40;;;;;;;16.90;15.40;;;;;;;20.61;84.25;100887.73;104131;275;39473;-73
2023/08/21 01:37:14;;;;;;;17.40;15.40;;;;;;;20.58;84.54;100890.79;104148;275;38591;-72
2023/08/21 01:39:48;;;;;;;16.30;14.60;;;;;;;20.54;84.62;100890.36;104133;275;39894;-71
2023/08/21 01:42:22;;;;;;;15.90;14.40;;;;;;;20.50;84.93;100893.08;104075;275;174834;-72
2023/08/21 01:44:56;;;;;;;16.50;14.90;;;;;;;20.51;85.12;100887.86;104103;276;39402;-72
2023/08/21 01:47:30;;;;;;;15.90;14.30;;;;;;;20.48;84.77;100882.95;104103;275;39893;-70
2023/08/21 01:50:05;;;;;;;15.50;14.00;;;;;;;20.48;85.14;100882.27;104106;275;38437;-72
2023/08/21 01:52:39;;;;;;;16.50;14.90;;;;;;;20.47;85.17;100880.36;104178;275;39411;-72
2023/08/21 01:55:13;;;;;;;16.30;14.70;;;;;;;20.47;85.77;100881.23;104138;275;38648;-72
2023/08/21 01:57:47;;;;;;;16.00;14.60;;;;;;;20.49;85.76;100877.79;104197;275;38233;-72
2023/08/21 02:00:21;;;;;;;15.50;14.00;;;;;;;20.48;85.61;100868.58;104107;275;38504;-72
2023/08/21 02:02:55;;;;;;;14.90;13.60;;;;;;;20.50;85.57;100863.86;104172;275;38400;-71
2023/08/21 02:05:29;;;;;;;15.30;13.90;;;;;;;20.51;85.68;100869.13;103555;275;898721;-71
2023/08/21 02:08:02;;;;;;;17.00;15.40;;;;;;;20.49;85.29;100871.52;104191;275;38396;-73
2023/08/21 02:10:41;;;;;;;17.20;15.60;;;;;;;20.38;85.36;100877.05;104109;275;38395;-72
2023/08/21 02:13:15;;;;;;;17.10;15.40;;;;;;;20.33;85.91;100872.15;104137;275;38581;-72
2023/08/21 02:15:49;;;;;;;16.60;15.00;;;;;;;20.32;86.22;100870.23;104124;275;39404;-72
2023/08/21 02:18:22;;;;;;;16.20;14.60;;;;;;;20.32;86.34;100862.48;104033;275;39533;-70
2023/08/21 02:20:56;;;;;;;17.00;15.30;;;;;;;20.30;86.17;100860.79;104118;275;38263;-71
2023/08/21 02:23:30;;;;;;;16.40;14.90;;;;;;;20.29;86.50;100865.11;104175;275;38604;-75
2023/08/21 02:26:06;;;;;;;17.30;15.70;;;;;;;20.29;86.70;100864.77;104135;275;39479;-74
2023/08/21 02:28:40;;;;;;;17.40;15.40;;;;;;;20.28;86.78;100865.75;104169;275;38749;-72
2023/08/21 02:31:15;;;;;;;17.70;15.90;;;;;;;20.26;86.60;100864.09;104164;275;38291;-72
2023/08/21 02:33:49;;;;;;;17.30;15.70;;;;;;;20.23;86.60;100871.10;104101;275;38424;-72
2023/08/21 02:36:23;;;;;;;16.80;15.20;;;;;;;20.22;86.55;100874.52;104180;275;38857;-72
2023/08/21 02:38:57;;;;;;;17.30;15.60;;;;;;;20.19;86.41;100880.73;104115;275;38248;-70
2023/08/21 02:41:31;;;;;;;17.00;15.40;;;;;;;20.10;86.57;100877.08;104117;275;38636;-70
2023/08/21 02:44:05;;;;;;;15.80;14.50;;;;;;;20.08;86.91;100873.34;104122;275;39425;-70
2023/08/21 02:46:39;;;;;;;17.40;15.90;;;;;;;20.07;86.87;100876.60;103974;276;41281;-72
2023/08/21 02:49:13;;;;;;;17.90;16.10;;;;;;;20.07;86.78;100880.89;104158;276;38416;-70
2023/08/21 02:51:48;;;;;;;18.60;16.90;;;;;;;20.04;86.90;100877.88;104037;277;40073;-74
2023/08/21 02:54:25;;;;;;;18.90;16.90;;;;;;;20.03;87.32;100879.17;104016;275;39649;-74
2023/08/21 02:57:01;;;;;;;18.70;16.90;;;;;;;20.01;87.20;100874.77;104190;275;38242;-70
2023/08/21 02:59:35;;;;;;;19.00;17.20;;;;;;;19.99;87.27;100873.27;104138;275;39716;-72
2023/08/21 03:02:09;;;;;;;17.70;15.90;;;;;;;19.98;87.15;100870.66;104130;275;39976;-73
2023/08/21 03:04:43;;;;;;;17.90;16.20;;;;;;;19.97;87.22;100867.22;104140;275;39721;-74
2023/08/21 03:07:18;;;;;;;19.50;17.60;;;;;;;19.96;87.40;100867.09;104141;276;39130;-73
2023/08/21 03:09:53;;;;;;;18.70;16.90;;;;;;;19.96;87.57;100863.72;104106;275;39051;-73
2023/08/21 03:12:27;;;;;;;18.80;16.80;;;;;;;19.93;87.32;100864.63;104148;275;38342;-71
2023/08/21 03:15:01;;;;;;;19.80;17.10;;;;;;;19.92;87.43;100865.30;104134;275;39407;-72
2023/08/21 03:17:34;;;;;;;18.10;16.40;;;;;;;19.90;87.58;100861.17;104139;275;38467;-71
2023/08/21 03:20:13;;;;;;;17.90;16.00;;;;;;;19.89;87.70;100866.02;104115;276;38226;-71
2023/08/21 03:22:47;;;;;;;18.40;16.60;;;;;;;19.87;87.91;100865.09;104040;275;174916;-71
2023/08/21 03:25:20;;;;;;;18.70;16.80;;;;;;;19.84;87.91;100861.73;104136;276;38540;-70
2023/08/21 03:27:54;;;;;;;18.80;16.70;;;;;;;19.83;87.97;100866.07;104163;276;39156;-71
2023/08/21 03:30:28;;;;;;;18.70;17.00;;;;;;;19.81;88.02;100871.48;104162;276;38356;-71
2023/08/21 03:33:02;;;;;;;17.80;16.20;;;;;;;19.81;88.43;100875.42;104194;276;38396;-74
2023/08/21 03:35:36;;;;;;;18.90;16.90;;;;;;;19.82;88.66;100875.33;104148;275;39431;-72
2023/08/21 03:38:10;;;;;;;24.00;16.70;;;;;;;19.83;88.52;100878.11;104175;275;38272;-73
2023/08/21 03:40:43;;;;;;;18.30;16.50;;;;;;;19.84;88.40;100882.64;104108;275;39995;-73
2023/08/21 03:43:17;;;;;;;19.60;17.80;;;;;;;19.84;88.50;100884.60;104014;276;38469;-72
2023/08/21 03:45:51;;;;;;;19.40;17.50;;;;;;;19.83;88.71;100883.71;104161;275;38877;-71
2023/08/21 03:48:25;;;;;;;18.70;16.80;;;;;;;19.83;88.82;100882.69;104135;263;38593;-70
2023/08/21 03:51:02;;;;;;;19.10;17.40;;;;;;;19.84;88.95;100881.91;104114;275;38382;-70
2023/08/21 03:53:37;;;;;;;19.00;17.10;;;;;;;19.86;88.97;100883.05;104122;276;38288;-73
2023/08/21 03:56:11;;;;;;;18.80;17.10;;;;;;;19.86;88.92;100879.16;104177;275;38281;-72
2023/08/21 03:58:45;;;;;;;19.20;17.30;;;;;;;19.86;88.82;100875.26;104138;276;38434;-72
2023/08/21 04:01:18;;;;;;;19.50;17.50;;;;;;;19.87;88.75;100868.82;104179;276;39362;-71
2023/08/21 04:03:52;;;;;;;19.50;17.70;;;;;;;19.89;89.22;100869.58;104143;276;38568;-71
2023/08/21 04:06:26;;;;;;;19.80;17.70;;;;;;;19.92;89.40;100872.16;104034;275;38688;-72
2023/08/21 04:09:00;;;;;;;20.30;18.10;;;;;;;19.96;89.62;100875.26;104132;276;38474;-72
2023/08/21 04:11:35;;;;;;;20.10;18.20;;;;;;;20.01;89.82;100877.21;104169;275;38391;-73
2023/08/21 04:14:09;;;;;;;19.80;17.90;;;;;;;20.08;89.98;100879.70;104105;275;38953;-73
2023/08/21 04:16:43;;;;;;;19.50;17.70;;;;;;;20.17;90.29;100876.14;104145;275;38214;-72
2023/08/21 04:19:17;;;;;;;19.40;17.40;;;;;;;20.25;90.62;100874.98;104110;276;38289;-74
2023/08/21 04:21:51;;;;;;;19.70;17.90;;;;;;;20.36;90.99;100880.61;104176;275;38285;-72
2023/08/21 04:24:25;;;;;;;20.70;18.60;;;;;;;20.47;91.18;100886.37;104122;276;38637;-70
2023/08/21 04:26:59;;;;;;;21.00;18.80;;;;;;;20.60;91.34;100883.70;104127;276;38758;-72
2023/08/21 04:29:33;;;;;;;20.30;18.40;;;;;;;20.67;90.98;100878.98;104147;275;39283;-70
2023/08/21 04:32:07;;;;;;;20.20;18.10;;;;;;;20.70;90.81;100879.09;104189;276;38515;-70
2023/08/21 04:34:41;;;;;;;19.50;17.70;;;;;;;20.78;90.90;100884.70;104108;276;38237;-72
2023/08/21 04:37:15;;;;;;;20.50;18.10;;;;;;;20.88;91.01;100881.52;104141;275;40166;-70
2023/08/21 04:39:49;;;;;;;20.70;18.70;;;;;;;20.98;91.41;100880.06;104130;275;39616;-71
2023/08/21 04:42:23;;;;;;;20.40;18.60;;;;;;;21.10;91.73;100883.03;104163;275;38631;-71
2023/08/21 04:44:57;;;;;;;20.50;18.70;;;;;;;21.27;92.92;100884.11;104167;275;38482;-72
2023/08/21 04:47:31;;;;;;;20.70;18.60;;;;;;;21.52;94.89;100884.56;104160;275;38421;-73
2023/08/21 04:50:06;;;;;;;19.00;16.90;;;;;;;21.85;95.06;100887.03;104150;275;38227;-73
2023/08/21 04:52:40;;;;;;;20.40;18.40;;;;;;;21.95;92.09;100887.17;104026;276;174576;-74
2023/08/21 04:55:14;;;;;;;20.10;18.10;;;;;;;21.94;90.30;100888.29;104110;275;38294;-72
2023/08/21 04:57:48;;;;;;;19.50;17.70;;;;;;;21.93;89.58;100891.54;104009;277;39597;-71
2023/08/21 05:00:22;;;;;;;20.90;19.10;;;;;;;21.92;89.09;100894.48;103998;276;38362;-71
2023/08/21 05:02:56;;;;;;;20.10;18.30;;;;;;;21.92;88.85;100892.16;104156;276;38508;-72
2023/08/21 05:05:30;;;;;;;19.40;17.50;;;;;;;21.92;88.57;100889.49;104085;275;38363;-72
2023/08/21 05:08:04;;;;;;;20.00;17.80;;;;;;;21.92;88.49;100889.70;104172;275;38959;-72
2023/08/21 05:10:37;;;;;;;19.60;17.70;;;;;;;21.93;88.53;100897.11;104116;276;38893;-73
2023/08/21 05:13:11;;;;;;;19.90;17.70;;;;;;;21.97;88.55;100897.30;104154;276;38984;-72
2023/08/21 05:15:45;;;;;;;19.00;17.10;;;;;;;22.01;88.38;100896.95;104078;276;39007;-70
2023/08/21 05:18:19;;;;;;;18.10;16.30;;;;;;;22.05;88.20;100890.06;104181;275;38553;-73
2023/08/21 05:20:54;;;;;;;19.00;17.00;;;;;;;22.13;88.31;100890.77;104152;275;38782;-72
2023/08/21 05:23:28;;;;;;;20.40;18.20;;;;;;;22.21;88.26;100894.02;104136;275;39983;-72
2023/08/21 05:26:06;;;;;;;19.60;17.80;;;;;;;22.27;87.85;100901.38;104124;275;38683;-72
2023/08/21 05:28:40;;;;;;;20.70;18.70;;;;;;;22.33;87.75;100905.20;104017;277;40300;-73
2023/08/21 05:31:14;;;;;;;19.20;17.30;;;;;;;22.40;87.90;100903.20;104113;275;38713;-73
2023/08/21 05:33:47;;;;;;;19.60;17.70;;;;;;;22.47;87.71;100900.30;104156;275;38438;-74
2023/08/21 05:36:21;;;;;;;21.00;18.10;;;;;;;22.57;87.60;100899.34;104169;268;38383;-72
2023/08/21 05:38:57;;;;;;;19.80;17.70;;;;;;;22.72;87.83;100902.21;104134;275;38382;-72
2023/08/21 05:41:31;;;;;;;20.10;18.30;;;;;;;22.86;87.45;100901.49;104176;275;38259;-70
2023/08/21 05:44:05;;;;;;;20.00;18.20;;;;;;;22.99;86.95;100905.01;104167;275;38235;-72
2023/08/21 05:46:39;;;;;;;20.80;19.00;;;;;;;23.10;86.45;100913.23;104178;275;38297;-72
2023/08/21 05:49:13;;;;;;;20.70;18.70;;;;;;;23.17;85.87;100918.61;104138;275;38238;-73
2023/08/21 05:51:47;;;;;;;19.70;17.80;;;;;;;23.22;85.26;100928.75;104170;275;38377;-73
2023/08/21 05:54:21;;;;;;;20.40;18.20;;;;;;;23.30;85.24;100935.40;104144;275;39418;-72
2023/08/21 05:56:54;;;;;;;20.40;18.20;;;;;;;23.40;84.45;100939.94;104145;275;39761;-73
2023/08/21 05:59:35;;;;;;;20.50;18.70;;;;;;;23.46;84.31;100936.98;103996;277;39620;-73
2023/08/21 06:02:13;;;;;;;19.60;17.80;;;;;;;23.87;87.84;100938.34;104186;264;38219;-72
2023/08/21 06:04:50;;;;;;;18.70;17.00;;;;;;;24.76;88.55;100943.50;104000;277;38566;-73
2023/08/21 06:07:29;;;;;;;19.10;17.30;;;;;;;25.58;85.93;100940.71;104192;275;38264;-74
2023/08/21 06:10:08;;;;;;;17.80;16.20;;;;;;;26.37;81.60;100939.90;104164;275;38449;-73
2023/08/21 06:12:42;;;;;;;17.10;15.50;;;;;;;26.98;79.90;100940.25;104185;275;39443;-71
2023/08/21 06:15:16;;;;;;;17.80;16.10;;;;;;;27.78;75.52;100934.84;104125;275;39409;-71
2023/08/21 06:17:50;;;;;;;17.10;15.50;;;;;;;28.31;71.94;100930.81;104158;275;38707;-72
2023/08/21 06:20:24;;;;;;;17.40;15.90;;;;;;;28.86;70.25;100932.94;103467;275;891983;-72
2023/08/21 06:22:58;;;;;;;16.20;14.90;;;;;;;29.34;66.89;100936.54;104104;275;38852;-73
2023/08/21 06:25:33;;;;;;;16.70;15.30;;;;;;;29.55;64.03;100929.66;104140;275;38278;-74
2023/08/21 06:28:08;;;;;;;16.10;14.50;;;;;;;29.59;62.69;100936.75;104192;275;39372;-75
2023/08/21 06:30:45;;;;;;;15.60;14.00;;;;;;;30.04;62.30;100942.06;104144;275;38339;-75
2023/08/21 06:33:28;;;;;;;14.80;13.40;;;;;;;30.38;60.23;100947.55;104162;275;38264;-74
2023/08/21 06:36:03;;;;;;;14.10;12.80;;;;;;;30.44;59.63;100953.06;104118;275;38442;-75
2023/08/21 06:38:44;;;;;;;14.90;13.40;;;;;;;30.32;58.66;100951.66;104106;275;38699;-74
2023/08/21 06:41:22;;;;;;;14.50;13.10;;;;;;;29.96;58.67;100953.66;104138;275;38283;-74
2023/08/21 06:43:56;;;;;;;14.20;12.90;;;;;;;29.61;58.80;100952.36;104015;275;38407;-74
2023/08/21 06:46:30;;;;;;;14.10;12.90;;;;;;;29.25;58.82;100961.28;104140;275;39389;-73
2023/08/21 06:49:04;;;;;;;14.50;13.20;;;;;;;29.03;59.87;100971.77;104133;275;39159;-73
2023/08/21 06:51:38;;;;;;;13.60;12.40;;;;;;;28.96;61.01;100977.14;104146;275;38671;-75
2023/08/21 06:54:12;;;;;;;13.60;12.40;;;;;;;28.97;61.21;100980.11;104135;276;39696;-74
2023/08/21 06:56:46;;;;;;;13.90;12.50;;;;;;;28.91;61.05;100981.44;104150;275;38434;-73
2023/08/21 06:59:20;;;;;;;14.30;12.90;;;;;;;28.88;61.08;100989.23;104186;275;38461;-73
2023/08/21 07:01:54;;;;;;;14.80;13.40;;;;;;;28.82;60.63;100989.52;104138;275;39580;-76
2023/08/21 07:04:29;;;;;;;14.20;12.80;;;;;;;28.73;60.46;100984.34;102056;277;2746684;-75
2023/08/21 07:07:03;;;;;;;14.20;12.90;;;;;;;28.56;60.42;100991.20;104151;275;39421;-74
2023/08/21 07:09:38;;;;;;;13.60;12.40;;;;;;;28.37;60.50;100998.36;104112;275;39440;-73
2023/08/21 07:12:12;;;;;;;13.40;12.20;;;;;;;28.20;60.99;101000.08;104156;275;38261;-75
2023/08/21 07:14:46;;;;;;;15.20;13.80;;;;;;;28.04;61.04;101001.05;103993;277;39909;-75
2023/08/21 07:17:20;;;;;;;13.90;12.70;;;;;;;27.81;61.47;101011.63;104164;275;38387;-75
2023/08/21 07:19:54;;;;;;;14.80;13.60;;;;;;;27.63;61.99;101015.25;104041;276;38578;-75
2023/08/21 07:22:29;;;;;;;14.70;13.20;;;;;;;27.44;62.53;101021.42;104156;275;39435;-75
2023/08/21 07:25:04;;;;;;;15.10;13.70;;;;;;;27.23;62.88;101030.45;104158;275;39682;-75
2023/08/21 07:27:38;;;;;;;14.60;13.50;;;;;;;27.03;63.04;101030.39;104205;275;39936;-74
2023/08/21 07:30:13;;;;;;;14.60;13.30;;;;;;;26.84;63.61;101030.30;104154;275;39067;-73
2023/08/21 07:32:47;;;;;;;14.20;13.00;;;;;;;26.66;64.14;101030.41;104190;275;39678;-75
2023/08/21 07:35:22;;;;;;;14.00;12.80;;;;;;;26.50;64.58;101022.94;104156;275;40326;-75
2023/08/21 07:37:55;;;;;;;13.50;12.30;;;;;;;26.38;65.18;101018.15;104072;276;39409;-74
2023/08/21 07:40:30;;;;;;;14.70;13.30;;;;;;;26.27;65.70;101012.94;103985;277;38726;-73
2023/08/21 07:43:03;;;;;;;15.20;13.80;;;;;;;26.18;66.14;101020.60;104159;276;38898;-74
2023/08/21 07:45:40;;;;;;;15.90;14.40;;;;;;;26.11;66.64;101018.60;104154;275;39431;-76
2023/08/21 07:48:14;;;;;;;17.20;15.80;;;;;;;26.07;67.07;101020.78;104183;275;39452;-75
2023/08/21 07:50:54;;;;;;;17.00;15.20;;;;;;;26.01;67.33;101015.58;104159;275;39432;-74
2023/08/21 07:53:28;;;;;;;16.70;15.20;;;;;;;25.96;67.76;101009.81;104199;276;39977;-75
2023/08/21 07:56:06;;;;;;;16.10;14.50;;;;;;;25.98;68.24;101012.30;104160;275;38483;-76
2023/08/21 07:58:41;;;;;;;16.50;14.30;;;;;;;26.03;68.45;101006.62;104182;275;38279;-77
2023/08/21 08:01:20;;;;;;;15.50;14.20;;;;;;;26.10;68.46;101008.43;104078;275;38702;-76
2023/08/21 08:03:56;;;;;;;15.80;14.30;;;;;;;26.22;68.84;101003.39;104030;276;39880;-76
2023/08/21 08:06:30;;;;;;;14.90;13.60;;;;;;;26.49;69.07;101006.41;104165;275;39664;-75
2023/08/21 08:09:05;;;;;;;13.30;12.20;;;;;;;26.78;68.71;101003.52;104151;275;38550;-71
2023/08/21 08:11:39;;;;;;;13.00;11.90;;;;;;;27.00;68.72;101001.70;104147;275;40751;-72
2023/08/21 08:14:16;;;;;;;12.90;11.00;;;;;;;27.31;68.54;101005.62;104065;266;38825;-71
2023/08/21 08:16:51;;;;;;;12.50;11.20;;;;;;;27.89;67.99;101000.02;104014;275;39612;-73
2023/08/21 08:19:24;;;;;;;11.50;10.30;;;;;;;28.28;66.44;101001.83;104120;271;39730;-73
2023/08/21 08:21:59;;;;;;;11.20;10.20;;;;;;;28.49;64.91;101002.27;104055;275;38704;-71
2023/08/21 08:24:32;;;;;;;10.70;9.80;;;;;;;28.52;63.58;101004.52;104085;275;40125;-71
2023/08/21 08:27:07;;;;;;;11.40;10.30;;;;;;;28.52;63.23;101006.11;104151;275;38539;-73
2023/08/21 08:29:42;;;;;;;11.50;10.40;;;;;;;28.57;63.05;101001.34;104122;275;39460;-73
2023/08/21 08:32:17;;;;;;;11.40;10.30;;;;;;;28.75;62.91;101001.58;104168;275;38270;-71
2023/08/21 08:34:51;;;;;;;11.30;10.30;;;;;;;28.86;61.94;101003.91;104105;275;38475;-71
2023/08/21 08:37:26;;;;;;;11.40;10.30;;;;;;;29.13;62.13;100997.72;104186;276;38610;-72
2023/08/21 08:40:00;;;;;;;10.00;9.20;;;;;;;29.55;61.47;100989.13;104125;275;38650;-71
2023/08/21 08:42:34;;;;;;;9.70;8.90;;;;;;;30.15;60.61;100980.61;104175;275;38711;-72
2023/08/21 08:45:10;;;;;;;9.80;9.00;;;;;;;30.85;59.17;100981.33;104212;275;38437;-75
2023/08/21 08:47:45;;;;;;;9.90;9.10;;;;;;;31.75;57.94;100977.69;104169;275;38567;-72
2023/08/21 08:50:19;;;;;;;9.50;8.70;;;;;;;32.70;55.26;100971.73;104095;275;38273;-71
2023/08/21 08:52:53;;;;;;;8.70;8.00;;;;;;;33.50;52.50;100962.02;104149;275;40189;-72
2023/08/21 08:55:27;;;;;;;8.70;8.00;;;;;;;34.30;50.23;100960.61;104121;275;38731;-74
2023/08/21 08:58:01;;;;;;;8.30;7.60;;;;;;;34.84;47.47;100962.04;104045;276;40502;-75
2023/08/21 09:00:35;;;;;;;8.50;7.60;;;;;;;35.26;46.98;100956.17;104149;275;39412;-74
2023/08/21 09:03:12;;;;;;;8.80;8.10;;;;;;;35.80;45.30;100953.83;104141;275;38481;-72
2023/08/21 09:05:48;;;;;;;8.40;7.80;;;;;;;36.17;43.87;100951.48;104144;275;38246;-71
2023/08/21 09:08:22;;;;;;;7.70;7.10;;;;;;;36.56;43.13;100949.02;104033;275;41933;-75
2023/08/21 09:10:57;;;;;;;8.10;7.40;;;;;;;36.89;41.21;100949.56;104131;275;38417;-76
2023/08/21 09:13:33;;;;;;;8.00;7.40;;;;;;;36.99;40.46;100945.61;104145;275;39466;-74
2023/08/21 09:16:08;;;;;;;6.80;6.20;;;;;;;37.33;39.59;100946.46;104131;272;39947;-74
2023/08/21 09:18:45;;;;;;;6.80;6.30;;;;;;;37.27;37.32;100945.99;104126;275;39827;-73
2023/08/21 09:21:21;;;;;;;7.20;6.60;;;;;;;37.04;37.25;100943.28;104125;276;40245;-74
2023/08/21 09:24:02;;;;;;;7.20;6.60;;;;;;;37.05;37.71;100937.03;104130;275;38249;-74
2023/08/21 09:26:39;;;;;;;6.30;5.80;;;;;;;37.23;36.76;100942.16;104136;275;39405;-73
2023/08/21 09:29:13;;;;;;;5.80;5.30;;;;;;;37.15;35.57;100945.27;104124;275;39640;-72
2023/08/21 09:31:47;;;;;;;5.50;5.10;;;;;;;37.06;35.18;100946.30;104015;276;173702;-74
2023/08/21 09:34:21;;;;;;;5.50;5.10;;;;;;;36.92;35.73;100947.02;104125;275;39696;-74
2023/08/21 09:36:58;;;;;;;6.30;5.60;;;;;;;36.72;35.42;100950.11;104029;276;38484;-73
2023/08/21 09:39:36;;;;;;;5.60;5.30;;;;;;;36.47;36.06;100945.89;104114;275;38355;-71
2023/08/21 09:42:11;;;;;;;5.60;5.10;;;;;;;36.21;36.26;100941.23;104138;275;39642;-71
2023/08/21 09:44:45;;;;;;;5.70;5.20;;;;;;;35.93;36.65;100944.07;104115;275;38689;-71
2023/08/21 09:47:19;;;;;;;5.30;4.90;;;;;;;35.65;36.95;100943.90;104133;275;38736;-74
2023/08/21 09:49:53;;;;;;;4.70;4.30;;;;;;;35.27;36.41;100944.25;104088;275;38252;-74
2023/08/21 09:52:27;;;;;;;5.00;4.60;;;;;;;34.86;37.41;100940.68;104142;275;38493;-74
2023/08/21 09:55:03;;;;;;;4.20;3.90;;;;;;;34.52;37.03;100939.52;103970;277;38401;-73
2023/08/21 09:57:37;;;;;;;4.50;4.20;;;;;;;34.25;37.25;100936.80;104159;275;39236;-71
2023/08/21 10:00:15;;;;;;;4.40;4.00;;;;;;;34.03;37.88;100932.63;104126;275;38390;-71
2023/08/21 10:02:52;;;;;;;4.60;4.30;;;;;;;33.81;37.88;100931.48;104163;275;38900;-72
2023/08/21 10:05:26;;;;;;;4.20;3.90;;;;;;;33.64;37.83;100927.27;104146;275;39808;-71
2023/08/21 10:08:02;;;;;;;3.90;3.60;;;;;;;33.48;37.02;100927.27;104157;275;39215;-74
2023/08/21 10:10:37;;;;;;;3.80;3.50;;;;;;;33.30;37.56;100928.92;104188;275;38490;-74
2023/08/21 10:13:11;;;;;;;3.90;3.50;;;;;;;33.15;36.50;100936.65;104193;275;38245;-72
2023/08/21 10:15:45;;;;;;;3.90;3.60;;;;;;;33.02;36.06;100933.63;104067;275;38512;-72
2023/08/21 10:18:33;;;;;;;4.30;4.00;;;;;;;32.85;35.84;100935.70;104178;275;38490;-72
2023/08/21 10:21:18;;;;;;;3.80;3.50;;;;;;;32.77;36.35;100939.92;104101;275;39448;-73
2023/08/21 10:23:55;;;;;;;4.40;4.00;;;;;;;32.68;36.09;100939.75;104135;275;38405;-74
2023/08/21 10:26:29;;;;;;;4.50;4.10;;;;;;;32.48;35.17;100943.52;104163;275;38428;-72
2023/08/21 10:29:06;;;;;;;4.80;4.40;;;;;;;32.31;35.59;100940.30;104108;275;38652;-72
2023/08/21 10:31:43;;;;;;;5.10;4.60;;;;;;;32.14;36.05;100942.77;104124;275;38601;-73
2023/08/21 10:34:17;;;;;;;5.50;5.00;;;;;;;32.07;37.36;100939.58;104097;275;38438;-73
2023/08/21 10:37:12;;;;;;;4.60;4.20;;;;;;;32.07;37.44;100943.94;104171;275;38436;-71
2023/08/21 10:39:59;;;;;;;5.70;5.20;;;;;;;32.03;36.12;100946.27;104116;275;39547;-71
2023/08/21 10:42:45;;;;;;;6.10;5.70;;;;;;;31.98;35.63;100948.66;104025;275;174348;-71
2023/08/21 10:45:19;;;;;;;5.90;5.10;;;;;;;31.92;35.17;100950.52;104149;275;39729;-71
2023/08/21 10:47:53;;;;;;;5.50;5.10;;;;;;;31.80;34.12;100946.11;104162;275;38313;-72
2023/08/21 10:50:27;;;;;;;5.70;5.20;;;;;;;31.70;34.75;100948.38;104115;275;38231;-72
2023/08/21 10:53:03;;;;;;;6.10;5.40;;;;;;;31.67;34.71;100952.48;104158;276;38880;-72
2023/08/21 10:55:37;;;;;;;5.20;4.80;;;;;;;31.65;34.88;100947.34;104138;275;38311;-72
2023/08/21 10:58:12;;;;;;;5.00;4.60;;;;;;;31.62;34.46;100949.87;104095;275;39272;-70
2023/08/21 11:00:46;;;;;;;5.00;4.70;;;;;;;31.51;34.30;100944.80;103970;277;40002;-72
2023/08/21 11:03:21;;;;;;;5.30;4.80;;;;;;;31.41;34.75;100949.08;104141;275;38363;-72
2023/08/21 11:06:08;;;;;;;5.50;5.00;;;;;;;31.40;35.10;100952.27;104160;275;38546;-72
2023/08/21 11:08:42;;;;;;;5.20;4.70;;;;;;;31.40;35.34;100952.30;104130;275;39150;-72
2023/08/21 11:11:19;;;;;;;5.90;5.40;;;;;;;31.34;35.53;100946.61;104142;275;38722;-72
2023/08/21 11:13:58;;;;;;;5.70;5.20;;;;;;;31.30;35.98;100941.27;104109;275;39666;-73
2023/08/21 11:16:33;;;;;;;5.20;4.70;;;;;;;31.32;35.91;100945.99;104165;275;38348;-71
2023/08/21 11:19:09;;;;;;;4.90;4.40;;;;;;;31.25;34.82;100944.64;104175;275;38532;-71
2023/08/21 11:21:44;;;;;;;4.70;4.40;;;;;;;31.20;35.02;100947.52;104143;275;38620;-72
2023/08/21 11:24:18;;;;;;;4.90;4.20;;;;;;;31.19;35.00;100950.14;104148;275;39456;-72
2023/08/21 11:26:53;;;;;;;4.70;3.80;;;;;;;31.23;34.38;100947.95;104065;276;174374;-73
2023/08/21 11:29:27;;;;;;;3.30;3.00;;;;;;;31.19;34.32;100948.01;104132;276;39379;-73
2023/08/21 11:32:00;;;;;;;4.90;3.20;;;;;;;31.14;32.69;100953.78;104155;275;38445;-71
2023/08/21 11:34:36;;;;;;;4.00;3.50;;;;;;;31.02;32.81;100950.52;104168;275;38973;-71
2023/08/21 11:37:10;;;;;;;3.40;3.10;;;;;;;30.96;32.68;100949.27;104134;275;38246;-72
2023/08/21 11:39:51;;;;;;;8.90;3.20;;;;;;;30.87;32.80;100950.15;104077;275;38269;-71
2023/08/21 11:42:32;;;;;;;4.80;3.20;;;;;;;30.83;33.06;100947.54;104166;275;38798;-73
2023/08/21 11:45:07;;;;;;;3.10;2.90;;;;;;;30.71;31.09;100949.23;104037;276;39270;-73
2023/08/21 11:47:40;;;;;;;3.40;3.10;;;;;;;30.48;31.45;100949.63;104191;275;39722;-74
2023/08/21 11:50:18;;;;;;;4.20;3.20;;;;;;;30.42;32.95;100942.98;104061;275;38458;-72